EWG9RZ EDLP-LEPA
Flight info
| Callsign | EWG9RZ |
|---|---|
| Flight time | N/A |
| Altitude | 35000 |
| Route | GISDI1X/06 GISDI Y13 ALEXU N850 GISEM DCT BOMBI DCT GIGET DCT ABUKA/N0455F360 DCT KRH DCT NATOR/N0456F350 DCT LUTIX DCT BENOT DCT NEMOS DCT GEVEA DCT INCUS DCT BALSI/N0456F370 DCT RETNO DCT TUPOX DCT MTG DCT DIVKO DCT VATIR N852 VERSO L129 LUNIK |
| Aircraft | A320/M-SDE3FGHIRWY/LB1 |
Departure
| Time | 2026-05-06 13:03 |
|---|---|
| Airport | Paderborn Lippstadt Airport (EDLP) |
Arrival
| Time | N/A |
|---|---|
| Airport | Palma de Mallorca Airport (LEPA) |
| Time | Latitude | Longitude | Altitude | Speed | Heading |
|---|---|---|---|---|---|
| 2026-05-06 12:19 | 51.61117 | 8.61929 | 731 ft | 0 kts | 146° |
| 2026-05-06 12:56 | 51.61125 | 8.61920 | 731 ft | 4 kts | 149° |
| 2026-05-06 12:56 | 51.61149 | 8.61904 | 729 ft | 4 kts | 173° |
| 2026-05-06 12:57 | 51.61173 | 8.61908 | 728 ft | 4 kts | 218° |
| 2026-05-06 12:57 | 51.61182 | 8.61922 | 728 ft | 1 kts | 237° |
| 2026-05-06 12:57 | 51.61183 | 8.61924 | 728 ft | 0 kts | 237° |
| 2026-05-06 13:00 | 51.61171 | 8.61896 | 729 ft | 10 kts | 237° |
| 2026-05-06 13:00 | 51.61110 | 8.61743 | 731 ft | 20 kts | 237° |
| 2026-05-06 13:00 | 51.61031 | 8.61550 | 731 ft | 21 kts | 236° |
| 2026-05-06 13:00 | 51.60961 | 8.61344 | 731 ft | 21 kts | 265° |
| 2026-05-06 13:01 | 51.60982 | 8.61085 | 719 ft | 24 kts | 256° |
| 2026-05-06 13:01 | 51.60890 | 8.60851 | 718 ft | 26 kts | 237° |
| 2026-05-06 13:01 | 51.60789 | 8.60600 | 715 ft | 23 kts | 237° |
| 2026-05-06 13:01 | 51.60783 | 8.60378 | 713 ft | 19 kts | 319° |
| 2026-05-06 13:02 | 51.60894 | 8.60378 | 717 ft | 14 kts | 36° |
| 2026-05-06 13:02 | 51.60918 | 8.60430 | 714 ft | 0 kts | 56° |
| 2026-05-06 13:02 | 51.61056 | 8.60766 | 716 ft | 75 kts | 57° |
| 2026-05-06 13:03 | 51.61463 | 8.61765 | 701 ft | 136 kts | 57° |
| 2026-05-06 13:03 | 51.62045 | 8.63230 | 955 ft | 154 kts | 56° |
| 2026-05-06 13:03 | 51.62620 | 8.64679 | 1659 ft | 156 kts | 55° |
| 2026-05-06 13:03 | 51.63227 | 8.66139 | 2209 ft | 162 kts | 52° |
| 2026-05-06 13:04 | 51.63894 | 8.67738 | 2442 ft | 183 kts | 59° |
| 2026-05-06 13:04 | 51.64296 | 8.69796 | 2687 ft | 204 kts | 78° |
| 2026-05-06 13:04 | 51.64582 | 8.72186 | 2905 ft | 230 kts | 78° |
| 2026-05-06 13:04 | 51.64614 | 8.74883 | 3233 ft | 255 kts | 107° |
| 2026-05-06 13:05 | 51.63621 | 8.77314 | 3720 ft | 268 kts | 143° |
| 2026-05-06 13:05 | 51.62014 | 8.78785 | 4602 ft | 267 kts | 165° |
| 2026-05-06 13:05 | 51.60197 | 8.79188 | 5551 ft | 262 kts | 181° |
| 2026-05-06 13:05 | 51.58384 | 8.79261 | 6530 ft | 260 kts | 182° |
| 2026-05-06 13:06 | 51.56568 | 8.79317 | 7348 ft | 263 kts | 182° |
| 2026-05-06 13:06 | 51.54727 | 8.79369 | 8139 ft | 266 kts | 182° |
| 2026-05-06 13:06 | 51.52863 | 8.79419 | 8932 ft | 270 kts | 182° |
| 2026-05-06 13:06 | 51.50969 | 8.79470 | 9707 ft | 274 kts | 182° |
| 2026-05-06 13:07 | 51.49032 | 8.79520 | 10200 ft | 288 kts | 182° |
| 2026-05-06 13:07 | 51.46949 | 8.79572 | 10388 ft | 311 kts | 182° |
| 2026-05-06 13:07 | 51.44709 | 8.79630 | 10644 ft | 330 kts | 181° |
| 2026-05-06 13:07 | 51.42388 | 8.79696 | 11220 ft | 337 kts | 181° |
| 2026-05-06 13:08 | 51.40033 | 8.79761 | 11888 ft | 341 kts | 181° |
| 2026-05-06 13:08 | 51.37644 | 8.79831 | 12554 ft | 345 kts | 181° |
| 2026-05-06 13:08 | 51.35226 | 8.79898 | 13218 ft | 349 kts | 181° |
| 2026-05-06 13:08 | 51.32782 | 8.79967 | 13848 ft | 353 kts | 181° |
| 2026-05-06 13:09 | 51.30316 | 8.80038 | 14448 ft | 356 kts | 181° |
| 2026-05-06 13:09 | 51.27832 | 8.80110 | 15037 ft | 359 kts | 181° |
| 2026-05-06 13:09 | 51.25355 | 8.80183 | 15644 ft | 361 kts | 182° |
| 2026-05-06 13:09 | 51.22836 | 8.80254 | 16243 ft | 364 kts | 181° |
| 2026-05-06 13:10 | 51.20292 | 8.80329 | 16866 ft | 366 kts | 181° |
| 2026-05-06 13:10 | 51.17740 | 8.80407 | 17475 ft | 368 kts | 181° |
| 2026-05-06 13:10 | 51.15170 | 8.80487 | 18065 ft | 371 kts | 181° |
| 2026-05-06 13:10 | 51.12575 | 8.80567 | 18586 ft | 374 kts | 181° |
| 2026-05-06 13:11 | 51.09962 | 8.80648 | 19103 ft | 377 kts | 182° |
| 2026-05-06 13:11 | 51.07332 | 8.80727 | 19626 ft | 380 kts | 182° |
| 2026-05-06 13:11 | 51.04675 | 8.80804 | 20140 ft | 383 kts | 182° |
| 2026-05-06 13:11 | 51.02005 | 8.80880 | 20644 ft | 385 kts | 182° |
| 2026-05-06 13:12 | 50.99318 | 8.80955 | 21145 ft | 388 kts | 182° |
| 2026-05-06 13:12 | 50.96614 | 8.81029 | 21634 ft | 390 kts | 182° |
| 2026-05-06 13:12 | 50.93891 | 8.81105 | 22107 ft | 393 kts | 182° |
| 2026-05-06 13:12 | 50.91147 | 8.81186 | 22570 ft | 395 kts | 182° |
| 2026-05-06 13:13 | 50.88385 | 8.81263 | 23031 ft | 398 kts | 182° |
| 2026-05-06 13:13 | 50.85607 | 8.81334 | 23449 ft | 400 kts | 182° |
| 2026-05-06 13:13 | 50.82817 | 8.81408 | 23796 ft | 403 kts | 182° |
| 2026-05-06 13:13 | 50.80004 | 8.81485 | 24163 ft | 404 kts | 182° |
| 2026-05-06 13:14 | 50.77190 | 8.81563 | 24504 ft | 406 kts | 182° |
| 2026-05-06 13:14 | 50.74355 | 8.81643 | 24846 ft | 408 kts | 182° |
| 2026-05-06 13:14 | 50.71509 | 8.81728 | 25187 ft | 410 kts | 182° |
| 2026-05-06 13:14 | 50.68646 | 8.81814 | 25521 ft | 412 kts | 182° |
| 2026-05-06 13:15 | 50.65812 | 8.81897 | 25847 ft | 414 kts | 182° |
| 2026-05-06 13:15 | 50.62915 | 8.81974 | 26176 ft | 415 kts | 182° |
| 2026-05-06 13:15 | 50.60022 | 8.81966 | 26499 ft | 416 kts | 184° |
| 2026-05-06 13:15 | 50.57115 | 8.81873 | 26811 ft | 418 kts | 185° |
| 2026-05-06 13:16 | 50.54205 | 8.81738 | 27101 ft | 420 kts | 185° |
| 2026-05-06 13:16 | 50.51280 | 8.81593 | 27382 ft | 422 kts | 185° |